createdAt,value
2019-05-23T00:01:14.515Z,17.58
2019-05-23T00:04:01.597Z,17.71
2019-05-23T00:06:31.877Z,17.60
2019-05-23T00:09:00.912Z,17.39
2019-05-23T00:11:40.219Z,16.71
2019-05-23T00:14:24.517Z,16.13
2019-05-23T00:16:54.841Z,16.66
2019-05-23T00:19:23.951Z,17.16
2019-05-23T00:21:53.986Z,17.33
2019-05-23T00:24:24.126Z,16.75
2019-05-23T00:26:53.029Z,16.58
2019-05-23T00:29:22.727Z,16.79
2019-05-23T00:31:55.880Z,17.11
2019-05-23T00:34:25.765Z,16.98
2019-05-23T00:36:55.018Z,16.84
2019-05-23T00:39:24.243Z,16.29
2019-05-23T00:41:53.846Z,16.88
2019-05-23T00:44:23.137Z,16.68
2019-05-23T00:46:52.762Z,16.25
2019-05-23T00:49:22.170Z,16.10
2019-05-23T00:51:50.870Z,15.96
2019-05-23T00:54:20.813Z,16.49
2019-05-23T00:56:50.310Z,16.98
2019-05-23T00:59:26.977Z,16.92
2019-05-23T01:01:50.252Z,17.05
2019-05-23T01:04:19.186Z,16.79
2019-05-23T01:06:49.368Z,16.85
2019-05-23T01:09:18.108Z,17.24
2019-05-23T01:11:47.602Z,17.03
2019-05-23T01:14:17.017Z,17.16
2019-05-23T01:16:45.760Z,17.25
2019-05-23T01:19:15.471Z,16.80
2019-05-23T01:21:52.605Z,16.64
2019-05-23T01:24:26.156Z,16.41
2019-05-23T01:26:54.962Z,16.45
2019-05-23T01:29:24.708Z,16.14
2019-05-23T01:32:01.103Z,16.29
2019-05-23T01:34:30.849Z,16.36
2019-05-23T01:36:59.759Z,15.85
2019-05-23T01:39:28.460Z,15.55
2019-05-23T01:41:57.199Z,15.02
2019-05-23T01:44:26.407Z,15.71
2019-05-23T01:46:55.827Z,15.83
2019-05-23T01:49:25.258Z,15.91
2019-05-23T01:51:54.759Z,15.92
2019-05-23T01:54:23.760Z,16.31
2019-05-23T01:56:52.499Z,16.31
2019-05-23T01:59:21.194Z,16.21
2019-05-23T02:01:49.897Z,16.60
2019-05-23T02:04:18.935Z,16.64
2019-05-23T02:06:47.943Z,16.96
2019-05-23T02:09:16.948Z,16.83
2019-05-23T02:11:45.691Z,16.77
2019-05-23T02:14:14.597Z,16.44
2019-05-23T02:16:45.554Z,16.30
2019-05-23T02:19:14.493Z,16.50
2019-05-23T02:21:44.913Z,16.16
2019-05-23T02:24:14.603Z,16.22
2019-05-23T02:26:44.652Z,16.34
2019-05-23T02:29:14.544Z,16.25
2019-05-23T02:31:43.243Z,16.86
2019-05-23T02:34:12.081Z,16.81
2019-05-23T02:36:41.093Z,16.68
2019-05-23T02:39:17.145Z,17.04
2019-05-23T02:42:03.762Z,16.72
2019-05-23T02:44:34.060Z,15.82
2019-05-23T02:47:21.197Z,15.27
2019-05-23T02:49:52.040Z,15.60
2019-05-23T02:52:23.854Z,15.41
2019-05-23T02:54:54.278Z,14.99
2019-05-23T02:57:25.529Z,15.36
2019-05-23T02:59:57.146Z,15.47
2019-05-23T03:02:30.490Z,14.90
2019-05-23T03:05:00.129Z,15.16
2019-05-23T03:07:33.112Z,15.80
2019-05-23T03:10:02.647Z,16.10
2019-05-23T03:12:31.843Z,16.33
2019-05-23T03:15:02.902Z,16.31
2019-05-23T03:17:34.699Z,16.39
2019-05-23T03:20:06.194Z,14.89
2019-05-23T03:22:54.265Z,14.68
2019-05-23T03:25:39.240Z,14.24
2019-05-23T03:28:09.778Z,15.10
2019-05-23T03:30:40.403Z,14.91
2019-05-23T03:33:10.872Z,15.84
2019-05-23T03:35:41.408Z,16.16
2019-05-23T03:38:11.096Z,15.95
2019-05-23T03:40:40.308Z,16.33
2019-05-23T03:43:10.136Z,16.35
2019-05-23T03:45:44.254Z,16.60
2019-05-23T03:48:13.790Z,16.94
2019-05-23T03:50:44.418Z,17.02
2019-05-23T03:53:13.136Z,16.86
2019-05-23T03:55:42.789Z,16.99
2019-05-23T03:58:12.993Z,17.19
2019-05-23T04:00:43.385Z,17.25
2019-05-23T04:03:12.709Z,16.69
2019-05-23T04:05:41.362Z,16.98
2019-05-23T04:08:11.885Z,17.23
2019-05-23T04:10:41.285Z,17.54
2019-05-23T04:13:09.993Z,17.82
2019-05-23T04:15:39.029Z,17.76
2019-05-23T04:18:08.062Z,18.15
2019-05-23T04:20:36.996Z,18.22
2019-05-23T04:23:05.942Z,17.92
2019-05-23T04:25:34.836Z,17.63
2019-05-23T04:28:04.468Z,17.66
2019-05-23T04:30:34.274Z,17.83
2019-05-23T04:33:03.714Z,17.63
2019-05-23T04:35:32.454Z,17.42
2019-05-23T04:38:01.648Z,17.21
2019-05-23T04:40:30.541Z,17.37
2019-05-23T04:42:59.294Z,17.70
2019-05-23T04:45:28.895Z,18.22
2019-05-23T04:47:57.615Z,17.85
2019-05-23T04:50:26.656Z,17.31
2019-05-23T04:52:55.642Z,17.80
2019-05-23T04:55:25.536Z,17.93
2019-05-23T04:57:54.481Z,17.76
2019-05-23T05:00:23.803Z,17.30
2019-05-23T05:02:53.998Z,18.02
2019-05-23T05:05:23.152Z,17.26
2019-05-23T05:07:51.855Z,17.03
2019-05-23T05:10:22.953Z,16.93
2019-05-23T05:12:52.230Z,17.42
2019-05-23T05:15:21.045Z,17.32
2019-05-23T05:17:49.847Z,17.68
2019-05-23T05:20:19.314Z,17.63
2019-05-23T05:22:48.173Z,17.63
2019-05-23T05:25:17.575Z,18.05
2019-05-23T05:27:47.395Z,17.37
2019-05-23T05:30:16.515Z,17.66
2019-05-23T05:32:45.888Z,17.37
2019-05-23T05:35:14.734Z,18.17
2019-05-23T05:37:43.462Z,18.53
2019-05-23T05:40:13.921Z,17.96
2019-05-23T05:42:44.149Z,18.04
2019-05-23T05:45:13.654Z,18.17
2019-05-23T05:47:42.849Z,17.97
2019-05-23T05:50:13.796Z,17.76
2019-05-23T05:52:42.906Z,18.05
2019-05-23T05:55:13.439Z,17.82
2019-05-23T05:57:42.688Z,17.46
2019-05-23T06:00:29.988Z,17.26
2019-05-23T06:03:05.029Z,17.39
2019-05-23T06:05:32.281Z,17.66
2019-05-23T06:08:01.476Z,17.65
2019-05-23T06:10:30.619Z,17.90
2019-05-23T06:12:59.316Z,17.97
2019-05-23T06:15:28.310Z,18.50
2019-05-23T06:17:57.051Z,17.70
2019-05-23T06:20:26.207Z,17.44
2019-05-23T06:22:55.617Z,17.32
2019-05-23T06:25:25.368Z,17.03
2019-05-23T06:27:54.290Z,17.19
2019-05-23T06:30:24.892Z,17.44
2019-05-23T06:32:54.023Z,17.22
2019-05-23T06:35:22.838Z,17.68
2019-05-23T06:37:51.847Z,17.55
2019-05-23T06:40:20.657Z,17.63
2019-05-23T06:42:50.873Z,17.61
2019-05-23T06:45:20.844Z,17.86
2019-05-23T06:47:49.821Z,17.62
2019-05-23T06:50:20.539Z,18.31
2019-05-23T06:52:49.218Z,17.82
2019-05-23T06:55:17.968Z,17.38
2019-05-23T06:57:46.656Z,17.41
2019-05-23T07:00:17.363Z,17.71
2019-05-23T07:02:47.388Z,17.72
2019-05-23T07:05:18.867Z,17.91
2019-05-23T07:07:47.619Z,17.67
2019-05-23T07:10:16.667Z,18.38
2019-05-23T07:12:45.362Z,18.19
2019-05-23T07:15:14.280Z,18.15
2019-05-23T07:17:42.980Z,17.68
2019-05-23T07:20:12.871Z,18.05
2019-05-23T07:22:41.574Z,18.04
2019-05-23T07:25:10.504Z,18.43
2019-05-23T07:27:39.651Z,19.37
2019-05-23T07:30:13.972Z,19.33
2019-05-23T07:32:42.809Z,18.63
2019-05-23T07:35:11.627Z,18.98
2019-05-23T07:37:40.313Z,18.14
2019-05-23T07:40:09.393Z,18.48
2019-05-23T07:42:38.693Z,18.80
2019-05-23T07:45:09.369Z,18.34
2019-05-23T07:47:40.183Z,18.41
2019-05-23T07:50:08.610Z,18.20
2019-05-23T07:52:37.410Z,18.07
2019-05-23T07:55:08.438Z,17.90
2019-05-23T07:57:37.212Z,18.15
2019-05-23T08:00:08.487Z,17.85
2019-05-23T08:02:40.243Z,18.00
2019-05-23T08:05:10.726Z,17.84
2019-05-23T08:07:39.835Z,17.54
2019-05-23T08:10:09.003Z,17.66
2019-05-23T08:12:37.808Z,18.34
2019-05-23T08:15:07.012Z,18.74
2019-05-23T08:17:36.066Z,18.74
2019-05-23T08:20:05.647Z,19.08
2019-05-23T08:22:34.455Z,18.85
2019-05-23T08:25:03.433Z,19.17
2019-05-23T08:27:33.888Z,18.58
2019-05-23T08:30:03.695Z,19.28
2019-05-23T08:32:32.860Z,18.71
2019-05-23T08:35:01.882Z,19.00
2019-05-23T08:37:31.545Z,19.00
2019-05-23T08:40:00.536Z,18.46
2019-05-23T08:42:30.127Z,18.60
2019-05-23T08:44:58.824Z,19.09
2019-05-23T08:47:27.768Z,18.93
2019-05-23T08:49:56.479Z,18.32
2019-05-23T08:52:25.171Z,18.67
2019-05-23T08:54:56.864Z,19.41
2019-05-23T08:57:25.586Z,19.06
2019-05-23T08:59:54.286Z,18.39
2019-05-23T09:02:23.760Z,18.84
2019-05-23T09:05:04.679Z,19.93
2019-05-23T09:07:23.131Z,19.33
2019-05-23T09:09:51.988Z,19.82
2019-05-23T09:12:20.682Z,18.90
2019-05-23T09:14:49.556Z,18.32
2019-05-23T09:17:19.189Z,18.63
2019-05-23T09:19:47.815Z,19.08
2019-05-23T09:22:16.533Z,19.17
2019-05-23T09:24:45.255Z,19.68
2019-05-23T09:27:13.956Z,19.12
2019-05-23T09:29:42.651Z,19.67
2019-05-23T09:32:11.687Z,19.37
2019-05-23T09:34:40.390Z,18.86
2019-05-23T09:37:09.649Z,18.85
2019-05-23T09:39:39.950Z,18.54
2019-05-23T09:42:12.063Z,18.80
2019-05-23T09:44:39.097Z,19.17
2019-05-23T09:47:07.819Z,19.02
2019-05-23T09:49:36.518Z,19.17
2019-05-23T09:52:06.181Z,19.26
2019-05-23T09:54:35.209Z,19.02
2019-05-23T09:57:05.614Z,19.29
2019-05-23T09:59:34.403Z,19.48
2019-05-23T10:02:03.388Z,19.59
2019-05-23T10:04:32.397Z,20.02
2019-05-23T10:07:01.130Z,19.20
2019-05-23T10:09:29.962Z,19.07
2019-05-23T10:11:58.652Z,18.74
2019-05-23T10:14:34.626Z,19.58
2019-05-23T10:17:03.447Z,19.33
2019-05-23T10:19:32.359Z,19.15
2019-05-23T10:22:01.060Z,19.29
2019-05-23T10:24:29.792Z,19.61
2019-05-23T10:26:58.505Z,19.43
2019-05-23T10:29:27.208Z,19.85
2019-05-23T10:31:55.937Z,20.08
2019-05-23T10:34:24.645Z,20.06
2019-05-23T10:36:53.296Z,19.77
2019-05-23T10:39:22.319Z,20.38
2019-05-23T10:41:51.138Z,20.12
2019-05-23T10:44:19.836Z,20.24
2019-05-23T10:46:48.577Z,20.97
2019-05-23T10:49:17.200Z,20.33
2019-05-23T10:51:45.907Z,19.93
2019-05-23T10:54:18.116Z,20.35
2019-05-23T10:56:46.949Z,19.71
2019-05-23T10:59:15.743Z,20.11
2019-05-23T11:01:44.764Z,20.28
2019-05-23T11:04:13.470Z,20.18
2019-05-23T11:06:43.058Z,20.65
2019-05-23T11:09:12.513Z,20.31
2019-05-23T11:11:41.354Z,20.22
2019-05-23T11:14:11.106Z,20.21
2019-05-23T11:16:40.534Z,20.27
2019-05-23T11:19:10.802Z,20.91
2019-05-23T11:21:39.496Z,20.92
2019-05-23T11:24:08.427Z,20.98
2019-05-23T11:26:37.055Z,20.82
2019-05-23T11:29:07.267Z,20.67
2019-05-23T11:31:36.183Z,21.30
2019-05-23T11:34:05.354Z,21.16
2019-05-23T11:36:36.540Z,21.23
2019-05-23T11:39:09.104Z,21.61
2019-05-23T11:41:37.729Z,21.07
2019-05-23T11:44:06.732Z,21.23
2019-05-23T11:46:37.144Z,21.32
2019-05-23T11:49:06.340Z,20.84
2019-05-23T11:51:35.747Z,21.68
2019-05-23T11:54:08.476Z,21.89
2019-05-23T11:56:37.103Z,21.51
2019-05-23T11:59:05.971Z,21.55
2019-05-23T12:01:39.106Z,21.55
2019-05-23T12:04:09.373Z,21.46
2019-05-23T12:06:54.359Z,21.26
2019-05-23T12:09:14.275Z,21.04
2019-05-23T12:11:43.573Z,21.48
2019-05-23T12:14:12.556Z,21.98
2019-05-23T12:16:41.853Z,21.86
2019-05-23T12:19:11.674Z,22.02
2019-05-23T12:21:40.512Z,21.66
2019-05-23T12:24:09.720Z,21.06
2019-05-23T12:26:38.524Z,21.31
2019-05-23T12:29:07.245Z,21.19
2019-05-23T12:31:35.982Z,21.75
2019-05-23T12:34:04.883Z,21.79
2019-05-23T12:36:33.811Z,21.90
2019-05-23T12:39:02.624Z,21.72
2019-05-23T12:41:31.406Z,21.83
2019-05-23T12:44:00.069Z,21.89
2019-05-23T12:46:28.772Z,20.92
2019-05-23T12:48:59.845Z,21.27
2019-05-23T12:51:44.426Z,21.24
2019-05-23T12:54:13.238Z,20.99
2019-05-23T12:56:41.951Z,21.08
2019-05-23T12:59:10.990Z,21.26
2019-05-23T13:01:41.361Z,21.03
2019-05-23T13:04:11.031Z,21.52
2019-05-23T13:06:39.871Z,21.30
2019-05-23T13:09:09.695Z,21.51
2019-05-23T13:11:38.964Z,20.33
2019-05-23T13:14:08.596Z,20.19
2019-05-23T13:16:37.591Z,20.30
2019-05-23T13:19:06.499Z,20.83
2019-05-23T13:21:35.419Z,20.71
2019-05-23T13:24:04.455Z,20.40
2019-05-23T13:26:33.230Z,20.28
2019-05-23T13:29:01.907Z,20.67
2019-05-23T13:31:30.706Z,20.30
2019-05-23T13:33:59.437Z,21.13
2019-05-23T13:36:28.159Z,21.02
2019-05-23T13:38:57.895Z,21.40
2019-05-23T13:41:26.533Z,20.73
2019-05-23T13:43:55.266Z,20.26
2019-05-23T13:46:23.896Z,20.46
2019-05-23T13:48:52.602Z,20.54
2019-05-23T13:51:21.363Z,20.25
2019-05-23T13:53:50.177Z,20.23
2019-05-23T13:56:19.545Z,20.62
2019-05-23T13:58:48.307Z,20.27
2019-05-23T14:01:18.212Z,20.35
2019-05-23T14:03:47.029Z,20.35
2019-05-23T14:06:15.862Z,20.84
2019-05-23T14:08:44.766Z,20.55
2019-05-23T14:11:13.554Z,21.14
2019-05-23T14:13:43.313Z,20.56
2019-05-23T14:16:12.232Z,21.02
2019-05-23T14:18:40.906Z,21.54
2019-05-23T14:21:09.742Z,21.74
2019-05-23T14:23:38.538Z,21.04
2019-05-23T14:26:08.804Z,21.45
2019-05-23T14:28:37.637Z,21.67
2019-05-23T14:31:07.903Z,20.95
2019-05-23T14:33:47.439Z,21.48
2019-05-23T14:36:36.005Z,21.59
2019-05-23T14:39:09.241Z,21.67
2019-05-23T14:41:45.395Z,21.26
2019-05-23T14:44:10.139Z,21.73
2019-05-23T14:46:46.373Z,21.81
2019-05-23T14:49:25.493Z,21.61
2019-05-23T14:51:58.408Z,22.09
2019-05-23T14:54:30.805Z,21.29
2019-05-23T14:56:59.697Z,20.97
2019-05-23T14:59:28.533Z,21.77
2019-05-23T15:01:58.237Z,21.67
2019-05-23T15:04:26.959Z,21.86
2019-05-23T15:06:55.711Z,22.03
2019-05-23T15:09:24.612Z,21.57
2019-05-23T15:11:53.234Z,21.21
2019-05-23T15:14:21.972Z,21.34
2019-05-23T15:16:50.688Z,20.76
2019-05-23T15:19:38.786Z,20.83
2019-05-23T15:21:49.776Z,20.62
2019-05-23T15:24:18.397Z,20.47
2019-05-23T15:26:47.391Z,20.66
2019-05-23T15:29:16.123Z,20.94
2019-05-23T15:32:01.154Z,20.72
2019-05-23T15:34:15.286Z,20.03
2019-05-23T15:36:44.000Z,20.09
2019-05-23T15:39:12.700Z,20.15
2019-05-23T15:41:41.326Z,20.23
2019-05-23T15:44:24.324Z,20.76
2019-05-23T15:46:41.393Z,20.42
2019-05-23T15:49:11.488Z,21.05
2019-05-23T15:51:56.695Z,20.82
2019-05-23T15:54:26.968Z,21.02
2019-05-23T15:56:57.218Z,21.26
2019-05-23T15:59:27.527Z,21.08
2019-05-23T16:02:06.709Z,20.38
2019-05-23T16:04:35.937Z,20.80
2019-05-23T16:07:05.521Z,20.55
2019-05-23T16:09:34.680Z,20.26
2019-05-23T16:12:03.837Z,19.94
2019-05-23T16:14:33.473Z,20.58
2019-05-23T16:17:02.178Z,19.91
2019-05-23T16:19:30.924Z,20.04
2019-05-23T16:21:59.644Z,19.71
2019-05-23T16:24:28.422Z,20.05
2019-05-23T16:26:57.463Z,20.79
2019-05-23T16:29:26.472Z,20.24
2019-05-23T16:31:55.269Z,20.55
2019-05-23T16:34:24.000Z,20.07
2019-05-23T16:36:52.623Z,20.12
2019-05-23T16:39:21.926Z,20.39
2019-05-23T16:41:50.680Z,20.21
2019-05-23T16:44:19.392Z,20.83
2019-05-23T16:46:48.186Z,20.41
2019-05-23T16:49:16.927Z,20.51
2019-05-23T16:51:45.619Z,21.17
2019-05-23T16:54:16.129Z,20.75
2019-05-23T16:56:46.541Z,20.61
2019-05-23T16:59:28.657Z,19.93
2019-05-23T17:02:10.805Z,20.59
2019-05-23T17:05:06.223Z,21.04
2019-05-23T17:07:37.942Z,20.83
2019-05-23T17:10:11.783Z,20.87
2019-05-23T17:12:45.211Z,20.76
2019-05-23T17:15:18.970Z,20.92
2019-05-23T17:18:02.964Z,21.50
2019-05-23T17:20:27.348Z,21.26
2019-05-23T17:22:57.727Z,21.28
2019-05-23T17:25:28.041Z,21.49
2019-05-23T17:28:07.374Z,21.36
2019-05-23T17:30:39.137Z,21.22
2019-05-23T17:33:08.345Z,20.84
2019-05-23T17:35:37.229Z,20.57
2019-05-23T17:38:05.965Z,20.87
2019-05-23T17:40:35.024Z,21.04
2019-05-23T17:43:03.816Z,21.23
2019-05-23T17:45:33.161Z,20.79
2019-05-23T17:48:03.711Z,20.87
2019-05-23T17:50:34.973Z,20.88
2019-05-23T17:53:03.479Z,20.37
2019-05-23T17:55:33.097Z,19.95
2019-05-23T17:58:01.909Z,19.87
2019-05-23T18:00:32.334Z,19.50
2019-05-23T18:03:01.135Z,19.65
2019-05-23T18:05:30.036Z,19.71
2019-05-23T18:08:00.473Z,20.08
2019-05-23T18:10:43.768Z,20.51
2019-05-23T18:13:00.189Z,20.33
2019-05-23T18:15:29.749Z,20.17
2019-05-23T18:17:59.017Z,19.75
2019-05-23T18:20:28.265Z,19.24
2019-05-23T18:22:57.093Z,19.65
2019-05-23T18:25:27.700Z,19.57
2019-05-23T18:27:56.497Z,19.51
2019-05-23T18:30:32.718Z,19.65
2019-05-23T18:33:02.556Z,19.31
2019-05-23T18:35:33.097Z,19.53
2019-05-23T18:38:02.528Z,19.13
2019-05-23T18:40:31.333Z,19.08
2019-05-23T18:43:00.053Z,19.03
2019-05-23T18:45:30.499Z,19.83
2019-05-23T18:48:00.610Z,19.81
2019-05-23T18:50:31.107Z,19.65
2019-05-23T18:52:59.951Z,18.82
2019-05-23T18:55:28.911Z,19.52
2019-05-23T18:57:57.599Z,19.09
2019-05-23T19:00:55.710Z,19.06
2019-05-23T19:03:24.543Z,19.39
2019-05-23T19:05:53.308Z,19.77
2019-05-23T19:08:22.757Z,19.69
2019-05-23T19:10:51.467Z,19.94
2019-05-23T19:13:20.177Z,19.61
2019-05-23T19:15:48.920Z,19.08
2019-05-23T19:18:17.731Z,18.51
2019-05-23T19:20:46.556Z,17.88
2019-05-23T19:23:15.801Z,17.95
2019-05-23T19:25:45.710Z,18.56
2019-05-23T19:28:14.700Z,18.29
2019-05-23T19:30:44.347Z,18.96
2019-05-23T19:33:13.085Z,18.95
2019-05-23T19:35:41.781Z,19.15
2019-05-23T19:38:12.194Z,19.49
2019-05-23T19:40:41.930Z,19.03
2019-05-23T19:43:10.633Z,19.21
2019-05-23T19:45:39.769Z,19.61
2019-05-23T19:48:08.669Z,18.43
2019-05-23T19:50:38.714Z,18.63
2019-05-23T19:53:07.450Z,18.65
2019-05-23T19:55:40.007Z,18.07
2019-05-23T19:58:08.080Z,18.39
2019-05-23T20:00:36.825Z,18.87
2019-05-23T20:03:05.918Z,18.65
2019-05-23T20:05:36.313Z,18.50
2019-05-23T20:08:06.150Z,18.50
2019-05-23T20:10:35.342Z,18.64
2019-05-23T20:13:04.039Z,18.40
2019-05-23T20:15:33.180Z,18.78
2019-05-23T20:18:02.165Z,19.17
2019-05-23T20:20:32.604Z,18.65
2019-05-23T20:23:01.525Z,18.33
2019-05-23T20:25:30.323Z,18.91
2019-05-23T20:27:59.065Z,19.12
2019-05-23T20:30:42.781Z,18.93
2019-05-23T20:33:11.477Z,18.78
2019-05-23T20:35:40.196Z,19.00
2019-05-23T20:38:09.271Z,19.28
2019-05-23T20:40:39.089Z,18.41
2019-05-23T20:43:07.856Z,18.61
2019-05-23T20:45:37.288Z,18.67
2019-05-23T20:48:08.520Z,18.70
2019-05-23T20:50:37.224Z,18.70
2019-05-23T20:53:06.823Z,18.54
2019-05-23T20:55:35.921Z,18.54
2019-05-23T20:58:05.511Z,17.89
2019-05-23T21:00:36.088Z,18.65
2019-05-23T21:03:05.086Z,18.35
2019-05-23T21:05:33.778Z,18.81
2019-05-23T21:08:02.524Z,19.02
2019-05-23T21:10:39.625Z,18.60
2019-05-23T21:13:08.365Z,18.84
2019-05-23T21:15:37.066Z,18.91
2019-05-23T21:18:06.568Z,18.59
2019-05-23T21:20:36.279Z,18.56
2019-05-23T21:23:05.142Z,18.79
2019-05-23T21:25:35.847Z,18.37
2019-05-23T21:28:04.705Z,18.34
2019-05-23T21:30:33.406Z,18.12
2019-05-23T21:33:02.101Z,17.70
2019-05-23T21:35:31.667Z,17.64
2019-05-23T21:38:00.363Z,18.17
2019-05-23T21:40:37.829Z,16.66
2019-05-23T21:43:06.535Z,17.31
2019-05-23T21:45:35.227Z,17.08
2019-05-23T21:48:04.673Z,17.29
2019-05-23T21:50:33.573Z,17.34
2019-05-23T21:53:02.660Z,17.90
2019-05-23T21:55:42.727Z,17.57
2019-05-23T21:58:14.857Z,18.20
2019-05-23T22:01:08.757Z,18.16
2019-05-23T22:03:55.008Z,17.73
2019-05-23T22:06:41.062Z,18.19
2019-05-23T22:09:11.321Z,18.28
2019-05-23T22:11:40.118Z,17.31
2019-05-23T22:14:08.892Z,17.67
2019-05-23T22:16:37.926Z,17.57
2019-05-23T22:19:09.193Z,16.65
2019-05-23T22:21:38.279Z,17.39
2019-05-23T22:24:08.532Z,17.49
2019-05-23T22:26:37.381Z,17.40
2019-05-23T22:29:06.634Z,17.83
2019-05-23T22:31:36.017Z,17.94
2019-05-23T22:34:24.786Z,17.72
2019-05-23T22:36:53.784Z,18.10
2019-05-23T22:39:22.666Z,17.25
2019-05-23T22:41:51.330Z,17.06
2019-05-23T22:44:20.424Z,17.41
2019-05-23T22:46:49.222Z,16.38
2019-05-23T22:49:18.133Z,16.90
2019-05-23T22:51:46.860Z,17.18
2019-05-23T22:54:15.566Z,17.39
2019-05-23T22:56:44.296Z,16.90
2019-05-23T22:59:13.152Z,16.56
2019-05-23T23:01:41.879Z,17.40
2019-05-23T23:04:11.080Z,17.47
2019-05-23T23:06:39.779Z,17.48
2019-05-23T23:09:08.481Z,17.91
2019-05-23T23:11:37.217Z,17.69
2019-05-23T23:14:06.710Z,17.97
2019-05-23T23:16:35.413Z,17.75
2019-05-23T23:19:04.446Z,17.84
2019-05-23T23:21:33.168Z,17.99
2019-05-23T23:24:01.796Z,18.08
2019-05-23T23:26:30.531Z,17.51
2019-05-23T23:28:59.526Z,16.86
2019-05-23T23:31:28.325Z,16.93
2019-05-23T23:33:57.046Z,17.24
2019-05-23T23:36:25.753Z,16.62
2019-05-23T23:38:54.454Z,17.01
2019-05-23T23:41:23.187Z,17.16
2019-05-23T23:43:59.148Z,17.08
2019-05-23T23:46:39.893Z,16.94
2019-05-23T23:49:26.132Z,17.14
2019-05-23T23:52:12.302Z,16.81
2019-05-23T23:54:58.740Z,17.03
2019-05-23T23:57:46.209Z,17.11
